sensor_id;sensor_type;location;lat;lon;timestamp;pressure;altitude;pressure_sealevel;temperature;humidity
80699;BME280;70062;51.658;5.658;2024-01-16T00:01:45;100743.04;;;22.36;25.83
80699;BME280;70062;51.658;5.658;2024-01-16T00:04:11;100740.05;;;22.45;25.82
80699;BME280;70062;51.658;5.658;2024-01-16T00:06:40;100741.45;;;22.63;25.61
80699;BME280;70062;51.658;5.658;2024-01-16T00:09:06;100744.40;;;22.75;25.48
80699;BME280;70062;51.658;5.658;2024-01-16T00:11:34;100741.42;;;22.79;25.34
80699;BME280;70062;51.658;5.658;2024-01-16T00:13:59;100735.48;;;22.69;25.35
80699;BME280;70062;51.658;5.658;2024-01-16T00:16:24;100737.09;;;22.46;25.58
80699;BME280;70062;51.658;5.658;2024-01-16T00:18:50;100735.86;;;22.35;25.77
80699;BME280;70062;51.658;5.658;2024-01-16T00:21:17;100730.09;;;22.45;25.73
80699;BME280;70062;51.658;5.658;2024-01-16T00:23:42;100734.80;;;22.65;25.65
80699;BME280;70062;51.658;5.658;2024-01-16T00:26:07;100736.70;;;22.75;25.44
80699;BME280;70062;51.658;5.658;2024-01-16T00:28:33;100736.87;;;22.77;25.36
80699;BME280;70062;51.658;5.658;2024-01-16T00:30:58;100732.18;;;22.64;25.53
80699;BME280;70062;51.658;5.658;2024-01-16T00:33:23;100739.88;;;22.40;25.59
80699;BME280;70062;51.658;5.658;2024-01-16T00:35:49;100741.81;;;22.35;25.83
80699;BME280;70062;51.658;5.658;2024-01-16T00:38:14;100743.73;;;22.50;25.69
80699;BME280;70062;51.658;5.658;2024-01-16T00:40:40;100746.52;;;22.66;25.62
80699;BME280;70062;51.658;5.658;2024-01-16T00:43:09;100747.20;;;22.73;25.39
80699;BME280;70062;51.658;5.658;2024-01-16T00:45:34;100748.79;;;22.72;25.45
80699;BME280;70062;51.658;5.658;2024-01-16T00:47:59;100747.58;;;22.58;25.45
80699;BME280;70062;51.658;5.658;2024-01-16T00:50:25;100745.31;;;22.36;25.67
80699;BME280;70062;51.658;5.658;2024-01-16T00:52:50;100741.29;;;22.36;25.83
80699;BME280;70062;51.658;5.658;2024-01-16T00:55:19;100747.75;;;22.52;25.75
80699;BME280;70062;51.658;5.658;2024-01-16T00:57:45;100752.64;;;22.75;25.58
80699;BME280;70062;51.658;5.658;2024-01-16T01:00:10;100756.03;;;23.14;25.44
80699;BME280;70062;51.658;5.658;2024-01-16T01:02:36;100755.48;;;23.61;24.93
80699;BME280;70062;51.658;5.658;2024-01-16T01:05:02;100761.36;;;24.00;24.34
80699;BME280;70062;51.658;5.658;2024-01-16T01:07:27;100763.81;;;24.25;24.11
80699;BME280;70062;51.658;5.658;2024-01-16T01:09:53;100764.48;;;24.35;23.69
80699;BME280;70062;51.658;5.658;2024-01-16T01:12:18;100761.86;;;24.33;23.60
80699;BME280;70062;51.658;5.658;2024-01-16T01:14:43;100763.63;;;24.26;23.58
80699;BME280;70062;51.658;5.658;2024-01-16T01:17:09;100760.25;;;24.07;23.66
80699;BME280;70062;51.658;5.658;2024-01-16T01:19:34;100758.39;;;23.74;23.80
80699;BME280;70062;51.658;5.658;2024-01-16T01:22:00;100759.20;;;23.52;24.14
80699;BME280;70062;51.658;5.658;2024-01-16T01:24:25;100757.62;;;23.54;24.34
80699;BME280;70062;51.658;5.658;2024-01-16T01:26:53;100758.10;;;23.64;24.21
80699;BME280;70062;51.658;5.658;2024-01-16T01:29:19;100755.80;;;23.68;24.27
80699;BME280;70062;51.658;5.658;2024-01-16T01:31:47;100758.10;;;23.63;24.10
80699;BME280;70062;51.658;5.658;2024-01-16T01:34:13;100758.70;;;23.42;24.25
80699;BME280;70062;51.658;5.658;2024-01-16T01:36:38;100753.58;;;23.16;24.34
80699;BME280;70062;51.658;5.658;2024-01-16T01:39:04;100756.56;;;23.13;24.78
80699;BME280;70062;51.658;5.658;2024-01-16T01:41:30;100756.69;;;23.27;24.62
80699;BME280;70062;51.658;5.658;2024-01-16T01:43:56;100761.00;;;23.39;24.59
80699;BME280;70062;51.658;5.658;2024-01-16T01:46:21;100762.73;;;23.42;24.45
80699;BME280;70062;51.658;5.658;2024-01-16T01:48:47;100762.77;;;23.35;24.35
80699;BME280;70062;51.658;5.658;2024-01-16T01:51:14;100765.50;;;23.11;24.57
80699;BME280;70062;51.658;5.658;2024-01-16T01:53:43;100762.77;;;22.93;24.79
80699;BME280;70062;51.658;5.658;2024-01-16T01:56:12;100765.36;;;23.03;24.95
80699;BME280;70062;51.658;5.658;2024-01-16T01:58:40;100758.12;;;23.19;24.77
80699;BME280;70062;51.658;5.658;2024-01-16T02:01:08;100762.27;;;23.29;24.58
80699;BME280;70062;51.658;5.658;2024-01-16T02:03:45;100763.67;;;23.29;24.41
80699;BME280;70062;51.658;5.658;2024-01-16T02:06:12;100771.27;;;23.14;24.67
80699;BME280;70062;51.658;5.658;2024-01-16T02:08:45;100779.00;;;23.09;24.75
80699;BME280;70062;51.658;5.658;2024-01-16T02:11:11;100777.65;;;23.40;24.71
80699;BME280;70062;51.658;5.658;2024-01-16T02:13:41;100772.02;;;23.78;24.41
80699;BME280;70062;51.658;5.658;2024-01-16T02:16:20;100774.98;;;24.06;24.03
80699;BME280;70062;51.658;5.658;2024-01-16T02:18:46;100773.65;;;24.20;23.76
80699;BME280;70062;51.658;5.658;2024-01-16T02:21:12;100767.49;;;24.22;23.58
80699;BME280;70062;51.658;5.658;2024-01-16T02:23:41;100768.80;;;24.14;23.60
80699;BME280;70062;51.658;5.658;2024-01-16T02:26:07;100770.30;;;24.00;23.74
80699;BME280;70062;51.658;5.658;2024-01-16T02:28:33;100767.64;;;23.79;23.74
80699;BME280;70062;51.658;5.658;2024-01-16T02:30:58;100770.05;;;23.57;23.93
80699;BME280;70062;51.658;5.658;2024-01-16T02:33:23;100771.92;;;23.27;24.18
80699;BME280;70062;51.658;5.658;2024-01-16T02:35:50;100781.32;;;22.87;24.48
80699;BME280;70062;51.658;5.658;2024-01-16T02:38:16;100778.02;;;22.64;25.03
80699;BME280;70062;51.658;5.658;2024-01-16T02:40:41;100777.66;;;22.73;25.04
80699;BME280;70062;51.658;5.658;2024-01-16T02:43:07;100778.88;;;22.88;24.88
80699;BME280;70062;51.658;5.658;2024-01-16T02:45:37;100781.83;;;22.97;24.88
80699;BME280;70062;51.658;5.658;2024-01-16T02:48:02;100786.73;;;22.99;24.82
80699;BME280;70062;51.658;5.658;2024-01-16T02:50:30;100788.33;;;22.92;24.79
80699;BME280;70062;51.658;5.658;2024-01-16T02:52:58;100790.61;;;22.78;24.85
80699;BME280;70062;51.658;5.658;2024-01-16T02:55:24;100789.75;;;22.49;25.07
80699;BME280;70062;51.658;5.658;2024-01-16T02:57:49;100789.56;;;22.25;25.56
80699;BME280;70062;51.658;5.658;2024-01-16T03:00:15;100790.44;;;22.28;25.63
80699;BME280;70062;51.658;5.658;2024-01-16T03:02:42;100796.02;;;22.44;25.54
80699;BME280;70062;51.658;5.658;2024-01-16T03:05:09;100787.11;;;22.50;25.35
80699;BME280;70062;51.658;5.658;2024-01-16T03:07:35;100796.58;;;22.55;25.25
80699;BME280;70062;51.658;5.658;2024-01-16T03:10:00;100801.80;;;22.50;25.30
80699;BME280;70062;51.658;5.658;2024-01-16T03:12:26;100802.33;;;22.36;25.39
80699;BME280;70062;51.658;5.658;2024-01-16T03:14:51;100803.35;;;22.10;25.51
80699;BME280;70062;51.658;5.658;2024-01-16T03:17:19;100799.97;;;21.89;25.98
80699;BME280;70062;51.658;5.658;2024-01-16T03:19:44;100798.95;;;21.98;26.14
80699;BME280;70062;51.658;5.658;2024-01-16T03:22:10;100803.20;;;22.36;25.99
80699;BME280;70062;51.658;5.658;2024-01-16T03:24:35;100795.14;;;22.90;25.52
80699;BME280;70062;51.658;5.658;2024-01-16T03:27:01;100788.66;;;23.46;24.97
80699;BME280;70062;51.658;5.658;2024-01-16T03:29:26;100783.53;;;23.88;24.44
80699;BME280;70062;51.658;5.658;2024-01-16T03:31:51;100787.36;;;24.17;23.99
80699;BME280;70062;51.658;5.658;2024-01-16T03:34:17;100788.55;;;24.30;23.56
80699;BME280;70062;51.658;5.658;2024-01-16T03:36:42;100792.22;;;24.33;23.50
80699;BME280;70062;51.658;5.658;2024-01-16T03:39:08;100791.52;;;24.25;23.52
80699;BME280;70062;51.658;5.658;2024-01-16T03:41:34;100786.41;;;24.04;23.45
80699;BME280;70062;51.658;5.658;2024-01-16T03:43:59;100796.09;;;23.71;23.72
80699;BME280;70062;51.658;5.658;2024-01-16T03:46:24;100793.53;;;23.53;24.08
80699;BME280;70062;51.658;5.658;2024-01-16T03:48:50;100787.39;;;23.57;24.11
80699;BME280;70062;51.658;5.658;2024-01-16T03:51:15;100781.58;;;23.66;24.02
80699;BME280;70062;51.658;5.658;2024-01-16T03:53:43;100777.71;;;23.67;23.90
80699;BME280;70062;51.658;5.658;2024-01-16T03:56:08;100770.91;;;23.60;23.97
80699;BME280;70062;51.658;5.658;2024-01-16T03:58:34;100774.84;;;23.38;24.13
80699;BME280;70062;51.658;5.658;2024-01-16T04:00:59;100775.31;;;23.12;24.29
80699;BME280;70062;51.658;5.658;2024-01-16T04:03:24;100776.19;;;23.10;24.44
80699;BME280;70062;51.658;5.658;2024-01-16T04:05:50;100774.39;;;23.23;24.54
80699;BME280;70062;51.658;5.658;2024-01-16T04:08:15;100777.14;;;23.34;24.35
80699;BME280;70062;51.658;5.658;2024-01-16T04:10:41;100773.27;;;23.37;24.33
80699;BME280;70062;51.658;5.658;2024-01-16T04:13:07;100766.50;;;23.26;24.27
80699;BME280;70062;51.658;5.658;2024-01-16T04:15:32;100766.76;;;23.01;24.42
80699;BME280;70062;51.658;5.658;2024-01-16T04:17:59;100763.30;;;22.88;24.75
80699;BME280;70062;51.658;5.658;2024-01-16T04:20:24;100758.02;;;23.00;24.77
80699;BME280;70062;51.658;5.658;2024-01-16T04:22:50;100755.15;;;23.16;24.56
80699;BME280;70062;51.658;5.658;2024-01-16T04:32:05;100761.71;;;22.93;24.55
80699;BME280;70062;51.658;5.658;2024-01-16T04:34:30;100758.05;;;22.85;24.74
80699;BME280;70062;51.658;5.658;2024-01-16T04:36:55;100756.08;;;23.03;24.91
80699;BME280;70062;51.658;5.658;2024-01-16T04:39:21;100754.96;;;23.20;24.57
80699;BME280;70062;51.658;5.658;2024-01-16T04:41:49;100755.10;;;23.26;24.50
80699;BME280;70062;51.658;5.658;2024-01-16T04:44:14;100761.08;;;23.23;24.43
80699;BME280;70062;51.658;5.658;2024-01-16T04:46:40;100765.36;;;23.03;24.42
80699;BME280;70062;51.658;5.658;2024-01-16T04:49:05;100763.31;;;22.81;24.69
80699;BME280;70062;51.658;5.658;2024-01-16T04:51:30;100763.84;;;22.83;24.95
80699;BME280;70062;51.658;5.658;2024-01-16T04:53:56;100764.15;;;22.95;24.78
80699;BME280;70062;51.658;5.658;2024-01-16T04:56:21;100760.81;;;23.03;24.81
80699;BME280;70062;51.658;5.658;2024-01-16T04:58:46;100760.98;;;23.04;24.75
80699;BME280;70062;51.658;5.658;2024-01-16T05:01:13;100765.74;;;22.92;24.61
80699;BME280;70062;51.658;5.658;2024-01-16T05:03:38;100762.96;;;22.67;24.81
80699;BME280;70062;51.658;5.658;2024-01-16T05:06:04;100766.31;;;22.56;25.01
80699;BME280;70062;51.658;5.658;2024-01-16T05:08:29;100762.97;;;22.67;25.01
80699;BME280;70062;51.658;5.658;2024-01-16T05:10:56;100765.41;;;22.83;24.99
80699;BME280;70062;51.658;5.658;2024-01-16T05:13:21;100762.42;;;22.90;24.84
80699;BME280;70062;51.658;5.658;2024-01-16T05:15:47;100761.73;;;22.87;24.88
80699;BME280;70062;51.658;5.658;2024-01-16T05:18:12;100755.96;;;22.68;24.81
80699;BME280;70062;51.658;5.658;2024-01-16T05:20:38;100750.55;;;22.47;25.15
80699;BME280;70062;51.658;5.658;2024-01-16T05:23:03;100748.80;;;22.51;25.34
80699;BME280;70062;51.658;5.658;2024-01-16T05:25:29;100747.74;;;22.68;25.27
80699;BME280;70062;51.658;5.658;2024-01-16T05:27:55;100743.89;;;22.82;25.05
80699;BME280;70062;51.658;5.658;2024-01-16T05:30:21;100733.73;;;22.84;24.98
80699;BME280;70062;51.658;5.658;2024-01-16T05:32:46;100737.75;;;22.77;25.17
80699;BME280;70062;51.658;5.658;2024-01-16T05:35:11;100735.16;;;22.53;24.96
80699;BME280;70062;51.658;5.658;2024-01-16T05:37:37;100731.14;;;22.40;25.23
80699;BME280;70062;51.658;5.658;2024-01-16T05:40:03;100728.34;;;22.51;25.41
80699;BME280;70062;51.658;5.658;2024-01-16T05:42:29;100725.87;;;22.70;25.18
80699;BME280;70062;51.658;5.658;2024-01-16T05:44:55;100727.27;;;22.81;25.08
80699;BME280;70062;51.658;5.658;2024-01-16T05:47:20;100728.67;;;22.81;24.96
80699;BME280;70062;51.658;5.658;2024-01-16T05:49:46;100721.51;;;22.65;24.96
80699;BME280;70062;51.658;5.658;2024-01-16T05:52:11;100719.06;;;22.44;25.26
80699;BME280;70062;51.658;5.658;2024-01-16T05:54:36;100714.69;;;22.45;25.27
80699;BME280;70062;51.658;5.658;2024-01-16T06:03:59;100712.38;;;22.86;24.96
80699;BME280;70062;51.658;5.658;2024-01-16T06:06:25;100711.88;;;22.62;25.11
80699;BME280;70062;51.658;5.658;2024-01-16T06:08:50;100713.81;;;22.48;25.27
80699;BME280;70062;51.658;5.658;2024-01-16T06:11:16;100716.61;;;22.59;25.22
80699;BME280;70062;51.658;5.658;2024-01-16T06:13:41;100716.05;;;22.79;25.06
80699;BME280;70062;51.658;5.658;2024-01-16T06:16:09;100718.31;;;22.90;24.98
80699;BME280;70062;51.658;5.658;2024-01-16T06:18:35;100718.65;;;22.94;24.82
80699;BME280;70062;51.658;5.658;2024-01-16T06:21:01;100720.95;;;22.82;24.84
80699;BME280;70062;51.658;5.658;2024-01-16T06:23:28;100715.22;;;22.58;25.06
80699;BME280;70062;51.658;5.658;2024-01-16T06:25:54;100711.71;;;22.51;25.35
80699;BME280;70062;51.658;5.658;2024-01-16T06:28:19;100712.92;;;22.67;25.21
80699;BME280;70062;51.658;5.658;2024-01-16T06:30:44;100710.63;;;22.84;25.13
80699;BME280;70062;51.658;5.658;2024-01-16T06:33:10;100711.13;;;22.92;24.97
80699;BME280;70062;51.658;5.658;2024-01-16T06:35:35;100709.21;;;22.89;24.99
80699;BME280;70062;51.658;5.658;2024-01-16T06:38:01;100711.86;;;22.69;25.02
80699;BME280;70062;51.658;5.658;2024-01-16T06:40:27;100710.65;;;22.50;25.11
80699;BME280;70062;51.658;5.658;2024-01-16T06:42:52;100711.89;;;22.57;25.35
80699;BME280;70062;51.658;5.658;2024-01-16T06:45:17;100717.29;;;22.77;25.20
80699;BME280;70062;51.658;5.658;2024-01-16T06:47:44;100710.96;;;22.89;24.89
80699;BME280;70062;51.658;5.658;2024-01-16T06:50:10;100707.27;;;22.92;24.80
80699;BME280;70062;51.658;5.658;2024-01-16T06:52:35;100707.30;;;22.82;24.87
80699;BME280;70062;51.658;5.658;2024-01-16T06:55:00;100712.41;;;22.58;25.02
80699;BME280;70062;51.658;5.658;2024-01-16T06:57:26;100712.94;;;22.51;25.23
80699;BME280;70062;51.658;5.658;2024-01-16T06:59:52;100712.40;;;22.65;25.15
80699;BME280;70062;51.658;5.658;2024-01-16T07:02:18;100716.41;;;22.83;25.05
80699;BME280;70062;51.658;5.658;2024-01-16T07:04:43;100714.98;;;22.90;24.81
80699;BME280;70062;51.658;5.658;2024-01-16T07:07:08;100715.52;;;22.89;24.94
80699;BME280;70062;51.658;5.658;2024-01-16T07:09:34;100717.81;;;22.71;25.00
80699;BME280;70062;51.658;5.658;2024-01-16T07:11:59;100715.55;;;22.48;25.11
80699;BME280;70062;51.658;5.658;2024-01-16T07:14:25;100723.60;;;22.51;25.25
80699;BME280;70062;51.658;5.658;2024-01-16T07:16:50;100728.84;;;22.68;25.20
80699;BME280;70062;51.658;5.658;2024-01-16T07:19:16;100737.23;;;22.82;25.07
80699;BME280;70062;51.658;5.658;2024-01-16T07:21:41;100733.73;;;22.86;24.92
80699;BME280;70062;51.658;5.658;2024-01-16T07:24:06;100737.92;;;22.80;24.86
80699;BME280;70062;51.658;5.658;2024-01-16T07:26:32;100735.85;;;22.56;24.99
80699;BME280;70062;51.658;5.658;2024-01-16T07:28:57;100738.65;;;22.44;25.35
80699;BME280;70062;51.658;5.658;2024-01-16T07:31:23;100736.91;;;22.57;25.35
80699;BME280;70062;51.658;5.658;2024-01-16T07:33:49;100741.09;;;22.75;25.15
80699;BME280;70062;51.658;5.658;2024-01-16T07:36:14;100743.55;;;22.80;25.22
80699;BME280;70062;51.658;5.658;2024-01-16T07:38:39;100738.06;;;22.97;25.11
80699;BME280;70062;51.658;5.658;2024-01-16T07:41:05;100734.73;;;23.39;25.11
80699;BME280;70062;51.658;5.658;2024-01-16T07:43:31;100733.30;;;23.77;24.60
80699;BME280;70062;51.658;5.658;2024-01-16T07:45:56;100733.02;;;23.91;24.31
80699;BME280;70062;51.658;5.658;2024-01-16T07:48:22;100743.89;;;23.92;24.22
80699;BME280;70062;51.658;5.658;2024-01-16T07:50:50;100745.19;;;24.05;24.04
80699;BME280;70062;51.658;5.658;2024-01-16T07:53:16;100740.23;;;24.36;24.01
80699;BME280;70062;51.658;5.658;2024-01-16T07:55:44;100740.45;;;24.70;23.66
80699;BME280;70062;51.658;5.658;2024-01-16T07:58:11;100740.81;;;24.84;23.32
80699;BME280;70062;51.658;5.658;2024-01-16T08:00:36;100748.20;;;24.82;23.26
80699;BME280;70062;51.658;5.658;2024-01-16T08:03:01;100752.15;;;24.90;23.25
80699;BME280;70062;51.658;5.658;2024-01-16T08:05:27;100750.66;;;25.15;23.01
80699;BME280;70062;51.658;5.658;2024-01-16T08:07:53;100744.07;;;25.48;22.69
80699;BME280;70062;51.658;5.658;2024-01-16T08:10:19;100748.66;;;25.73;22.32
80699;BME280;70062;51.658;5.658;2024-01-16T08:12:44;100750.64;;;25.82;22.20
80699;BME280;70062;51.658;5.658;2024-01-16T08:15:09;100753.64;;;25.81;22.12
80699;BME280;70062;51.658;5.658;2024-01-16T08:17:35;100754.02;;;25.67;22.08
80699;BME280;70062;51.658;5.658;2024-01-16T08:20:00;100758.30;;;25.35;22.23
80699;BME280;70062;51.658;5.658;2024-01-16T08:22:26;100760.98;;;25.04;22.44
80699;BME280;70062;51.658;5.658;2024-01-16T08:24:51;100762.63;;;24.97;22.62
80699;BME280;70062;51.658;5.658;2024-01-16T08:27:16;100758.52;;;25.04;22.69
80699;BME280;70062;51.658;5.658;2024-01-16T08:29:42;100759.55;;;25.06;22.67
80699;BME280;70062;51.658;5.658;2024-01-16T08:32:07;100754.55;;;24.96;22.74
80699;BME280;70062;51.658;5.658;2024-01-16T08:34:33;100755.54;;;24.70;22.92
80699;BME280;70062;51.658;5.658;2024-01-16T08:36:58;100756.77;;;24.53;23.13
80699;BME280;70062;51.658;5.658;2024-01-16T08:39:23;100758.98;;;24.59;23.28
80699;BME280;70062;51.658;5.658;2024-01-16T08:41:50;100758.84;;;24.73;23.11
80699;BME280;70062;51.658;5.658;2024-01-16T08:44:15;100757.02;;;24.78;23.09
80699;BME280;70062;51.658;5.658;2024-01-16T08:46:40;100762.95;;;24.66;23.00
80699;BME280;70062;51.658;5.658;2024-01-16T08:49:06;100764.91;;;24.44;23.18
80699;BME280;70062;51.658;5.658;2024-01-16T08:51:31;100765.64;;;24.41;23.33
80699;BME280;70062;51.658;5.658;2024-01-16T08:53:56;100762.86;;;24.57;23.37
80699;BME280;70062;51.658;5.658;2024-01-16T08:56:21;100766.05;;;24.72;23.16
80699;BME280;70062;51.658;5.658;2024-01-16T08:58:47;100760.95;;;24.73;23.04
80699;BME280;70062;51.658;5.658;2024-01-16T09:01:12;100760.77;;;24.56;23.11
80699;BME280;70062;51.658;5.658;2024-01-16T09:03:38;100759.88;;;24.39;23.24
80699;BME280;70062;51.658;5.658;2024-01-16T09:06:03;100758.79;;;24.44;23.42
80699;BME280;70062;51.658;5.658;2024-01-16T09:08:29;100761.94;;;24.62;23.27
80699;BME280;70062;51.658;5.658;2024-01-16T09:10:56;100763.73;;;24.74;23.21
80699;BME280;70062;51.658;5.658;2024-01-16T09:13:30;100759.75;;;24.70;23.22
80699;BME280;70062;51.658;5.658;2024-01-16T09:15:58;100759.86;;;24.59;23.44
80699;BME280;70062;51.658;5.658;2024-01-16T09:18:44;100765.07;;;24.81;23.59
80699;BME280;70062;51.658;5.658;2024-01-16T09:21:13;100767.79;;;25.22;23.51
80699;BME280;70062;51.658;5.658;2024-01-16T09:23:38;100762.17;;;25.49;23.22
80699;BME280;70062;51.658;5.658;2024-01-16T09:26:03;100756.00;;;25.63;23.04
80699;BME280;70062;51.658;5.658;2024-01-16T09:28:29;100756.33;;;25.64;22.90
80699;BME280;70062;51.658;5.658;2024-01-16T09:30:54;100751.34;;;25.55;22.74
80699;BME280;70062;51.658;5.658;2024-01-16T09:33:22;100752.13;;;25.38;22.94
80699;BME280;70062;51.658;5.658;2024-01-16T09:35:48;100754.45;;;25.05;23.09
80699;BME280;70062;51.658;5.658;2024-01-16T09:38:13;100754.70;;;24.65;23.40
80699;BME280;70062;51.658;5.658;2024-01-16T09:40:38;100749.61;;;24.47;23.69
80699;BME280;70062;51.658;5.658;2024-01-16T09:43:04;100754.97;;;24.57;23.85
80699;BME280;70062;51.658;5.658;2024-01-16T09:45:30;100754.78;;;24.75;23.58
80699;BME280;70062;51.658;5.658;2024-01-16T09:47:56;100758.18;;;24.85;23.49
80699;BME280;70062;51.658;5.658;2024-01-16T09:50:22;100761.73;;;24.82;23.40
80699;BME280;70062;51.658;5.658;2024-01-16T09:52:47;100761.23;;;24.61;23.46
80699;BME280;70062;51.658;5.658;2024-01-16T09:55:14;100762.70;;;24.38;23.63
80699;BME280;70062;51.658;5.658;2024-01-16T10:04:17;100753.80;;;24.50;23.59
80699;BME280;70062;51.658;5.658;2024-01-16T10:06:45;100748.02;;;24.26;23.69
80699;BME280;70062;51.658;5.658;2024-01-16T10:09:12;100735.55;;;24.05;23.81
80699;BME280;70062;51.658;5.658;2024-01-16T10:11:38;100732.19;;;24.07;24.03
80699;BME280;70062;51.658;5.658;2024-01-16T10:14:05;100734.70;;;24.24;23.86
80699;BME280;70062;51.658;5.658;2024-01-16T10:19:26;100738.52;;;24.33;23.68
80699;BME280;70062;51.658;5.658;2024-01-16T10:22:00;100734.61;;;24.13;23.72
80699;BME280;70062;51.658;5.658;2024-01-16T10:25:04;100734.58;;;23.95;24.06
80699;BME280;70062;51.658;5.658;2024-01-16T10:27:30;100731.84;;;24.09;23.99
80699;BME280;70062;51.658;5.658;2024-01-16T10:30:20;100728.02;;;24.25;23.87
80699;BME280;70062;51.658;5.658;2024-01-16T10:32:48;100722.38;;;24.33;23.72
80699;BME280;70062;51.658;5.658;2024-01-16T10:35:14;100721.73;;;24.22;23.80
80699;BME280;70062;51.658;5.658;2024-01-16T10:38:00;100720.16;;;23.98;23.92
80699;BME280;70062;51.658;5.658;2024-01-16T10:40:25;100723.74;;;23.90;24.15
80699;BME280;70062;51.658;5.658;2024-01-16T10:43:05;100724.34;;;24.04;24.19
80699;BME280;70062;51.658;5.658;2024-01-16T10:45:32;100717.20;;;24.17;24.06
80699;BME280;70062;51.658;5.658;2024-01-16T10:48:01;100707.90;;;24.18;23.96
80699;BME280;70062;51.658;5.658;2024-01-16T10:50:35;100708.75;;;24.00;23.94
80699;BME280;70062;51.658;5.658;2024-01-16T10:53:05;100706.46;;;23.81;24.18
80699;BME280;70062;51.658;5.658;2024-01-16T10:55:31;100710.28;;;23.85;24.25
80699;BME280;70062;51.658;5.658;2024-01-16T10:57:57;100716.23;;;24.07;24.21
80699;BME280;70062;51.658;5.658;2024-01-16T11:00:23;100720.68;;;24.20;24.08
80699;BME280;70062;51.658;5.658;2024-01-16T11:02:54;100720.30;;;24.24;23.99
80699;BME280;70062;51.658;5.658;2024-01-16T11:05:22;100717.81;;;24.08;23.94
80699;BME280;70062;51.658;5.658;2024-01-16T11:07:48;100705.16;;;23.89;24.05
80699;BME280;70062;51.658;5.658;2024-01-16T11:10:15;100702.65;;;23.96;24.22
80699;BME280;70062;51.658;5.658;2024-01-16T11:12:43;100699.70;;;24.13;24.21
80699;BME280;70062;51.658;5.658;2024-01-16T11:15:10;100697.86;;;24.23;24.00
80699;BME280;70062;51.658;5.658;2024-01-16T11:17:38;100699.62;;;24.22;23.88
80699;BME280;70062;51.658;5.658;2024-01-16T11:20:05;100698.38;;;24.04;23.94
80699;BME280;70062;51.658;5.658;2024-01-16T11:22:37;100692.52;;;23.91;24.07
80699;BME280;70062;51.658;5.658;2024-01-16T11:25:08;100694.16;;;24.04;24.15
80699;BME280;70062;51.658;5.658;2024-01-16T11:27:37;100690.84;;;24.25;24.15
80699;BME280;70062;51.658;5.658;2024-01-16T11:30:07;100690.33;;;24.45;23.89
80699;BME280;70062;51.658;5.658;2024-01-16T11:32:40;100682.73;;;24.65;23.72
80699;BME280;70062;51.658;5.658;2024-01-16T11:35:34;100677.06;;;24.86;23.65
80699;BME280;70062;51.658;5.658;2024-01-16T11:38:56;100672.92;;;25.22;23.57
80699;BME280;70062;51.658;5.658;2024-01-16T11:42:03;100675.97;;;25.53;23.39
80699;BME280;70062;51.658;5.658;2024-01-16T11:45:08;100674.27;;;25.62;23.29
80699;BME280;70062;51.658;5.658;2024-01-16T11:47:34;100673.00;;;25.53;23.37
80699;BME280;70062;51.658;5.658;2024-01-16T11:50:10;100677.45;;;25.24;23.52
80699;BME280;70062;51.658;5.658;2024-01-16T11:52:45;100677.09;;;25.00;23.87
80699;BME280;70062;51.658;5.658;2024-01-16T11:55:27;100676.85;;;25.04;24.09
80699;BME280;70062;51.658;5.658;2024-01-16T12:00:54;100663.18;;;25.28;23.83
80699;BME280;70062;51.658;5.658;2024-01-16T12:03:39;100659.77;;;25.08;23.91
80699;BME280;70062;51.658;5.658;2024-01-16T12:06:08;100668.23;;;24.90;24.08
80699;BME280;70062;51.658;5.658;2024-01-16T12:08:38;100668.55;;;24.92;24.10
80699;BME280;70062;51.658;5.658;2024-01-16T12:11:04;100662.91;;;25.09;23.88
80699;BME280;70062;51.658;5.658;2024-01-16T12:13:30;100659.42;;;25.20;23.71
80699;BME280;70062;51.658;5.658;2024-01-16T12:16:03;100650.95;;;25.10;23.71
80699;BME280;70062;51.658;5.658;2024-01-16T12:18:30;100651.52;;;24.91;23.76
80699;BME280;70062;51.658;5.658;2024-01-16T12:20:56;100652.20;;;24.65;23.82
80699;BME280;70062;51.658;5.658;2024-01-16T12:23:29;100649.37;;;24.35;24.14
80699;BME280;70062;51.658;5.658;2024-01-16T12:25:58;100654.50;;;24.07;24.22
80699;BME280;70062;51.658;5.658;2024-01-16T12:28:28;100649.16;;;23.77;24.71
80699;BME280;70062;51.658;5.658;2024-01-16T12:30:53;100637.46;;;23.46;25.06
80699;BME280;70062;51.658;5.658;2024-01-16T12:33:22;100630.11;;;23.44;25.37
80699;BME280;70062;51.658;5.658;2024-01-16T12:35:48;100630.39;;;23.79;25.27
80699;BME280;70062;51.658;5.658;2024-01-16T12:38:14;100629.44;;;24.27;24.74
80699;BME280;70062;51.658;5.658;2024-01-16T12:40:51;100625.70;;;24.65;24.31
80699;BME280;70062;51.658;5.658;2024-01-16T12:43:17;100619.90;;;24.79;24.03
80699;BME280;70062;51.658;5.658;2024-01-16T12:45:55;100624.21;;;24.72;23.89
80699;BME280;70062;51.658;5.658;2024-01-16T12:48:27;100619.45;;;24.72;23.92
80699;BME280;70062;51.658;5.658;2024-01-16T12:51:10;100620.08;;;24.94;23.75
80699;BME280;70062;51.658;5.658;2024-01-16T12:53:38;100619.29;;;25.13;23.46
80699;BME280;70062;51.658;5.658;2024-01-16T12:56:29;100612.71;;;25.18;23.27
80699;BME280;70062;51.658;5.658;2024-01-16T12:58:54;100607.52;;;25.13;23.19
80699;BME280;70062;51.658;5.658;2024-01-16T13:01:43;100605.08;;;24.99;23.37
80699;BME280;70062;51.658;5.658;2024-01-16T13:04:56;100603.52;;;24.69;23.49
80699;BME280;70062;51.658;5.658;2024-01-16T13:08:21;100603.19;;;24.21;23.89
80699;BME280;70062;51.658;5.658;2024-01-16T13:11:11;100606.95;;;23.93;24.30
80699;BME280;70062;51.658;5.658;2024-01-16T13:14:09;100605.02;;;24.11;24.32
80699;BME280;70062;51.658;5.658;2024-01-16T13:16:45;100602.66;;;24.40;24.06
80699;BME280;70062;51.658;5.658;2024-01-16T13:19:21;100593.02;;;24.54;23.87
80699;BME280;70062;51.658;5.658;2024-01-16T13:21:50;100591.82;;;24.51;23.85